Time;durP1;ratioP1;P1;durP2;ratioP2;P2;SDS_P1;SDS_P2;PMS_P1;PMS_P2;Temp;Humidity;BMP_temperature;BMP_pressure;BME280_temperature;BME280_humidity;BME280_pressure;Samples;Min_cycle;Max_cycle;Signal;HPM_P1;HPM_P2
2021/10/12 00:01:19;;;;;;;13.20;7.55;;;7.70;99.90;;;;;;4943064;28;20045;-87
2021/10/12 00:03:45;;;;;;;13.02;8.18;;;7.70;99.90;;;;;;4941559;28;20037;-86
2021/10/12 00:06:11;;;;;;;14.55;8.40;;;7.70;99.90;;;;;;4945843;28;20049;-86
2021/10/12 00:08:38;;;;;;;17.42;9.00;;;7.70;99.90;;;;;;4943221;28;20038;-87
2021/10/12 00:11:04;;;;;;;14.50;8.90;;;7.70;99.90;;;;;;4943620;28;20041;-86
2021/10/12 00:13:30;;;;;;;18.35;8.75;;;7.60;99.90;;;;;;4957228;28;20110;-86
2021/10/12 00:15:55;;;;;;;16.50;9.00;;;7.60;99.90;;;;;;4915317;29;20113;-86
2021/10/12 00:18:21;;;;;;;16.67;8.98;;;7.60;99.90;;;;;;4942023;28;20047;-87
2021/10/12 00:20:47;;;;;;;17.00;8.60;;;7.60;99.90;;;;;;4914285;28;20034;-87
2021/10/12 00:23:13;;;;;;;16.63;8.63;;;7.60;99.90;;;;;;4927561;28;20070;-86
2021/10/12 00:25:39;;;;;;;14.52;8.48;;;7.60;99.90;;;;;;4926969;28;20042;-87
2021/10/12 00:28:05;;;;;;;17.70;9.50;;;7.60;99.90;;;;;;4928190;28;20469;-86
2021/10/12 00:30:30;;;;;;;17.90;10.10;;;7.60;99.90;;;;;;4955634;28;20062;-87
2021/10/12 00:32:56;;;;;;;18.35;10.93;;;7.60;99.90;;;;;;4942948;28;20038;-86
2021/10/12 00:35:22;;;;;;;18.75;9.82;;;7.60;99.90;;;;;;4930704;28;20062;-86
2021/10/12 00:37:51;;;;;;;19.38;9.15;;;7.60;99.90;;;;;;4926301;28;20035;-87
2021/10/12 00:40:22;;;;;;;22.42;10.55;;;7.50;99.90;;;;;;4943401;28;20089;-87
2021/10/12 00:42:48;;;;;;;19.23;10.50;;;7.60;99.90;;;;;;4945695;28;20039;-86
2021/10/12 00:45:15;;;;;;;19.13;10.00;;;7.60;99.90;;;;;;4939918;28;20035;-86
2021/10/12 00:47:56;;;;;;;21.23;11.10;;;7.60;99.90;;;;;;4936235;28;20035;-87
2021/10/12 00:50:22;;;;;;;24.55;11.23;;;7.60;99.90;;;;;;4955319;28;20030;-87
2021/10/12 00:52:47;;;;;;;22.17;10.98;;;7.50;99.90;;;;;;4927699;28;21277;-87
2021/10/12 00:55:13;;;;;;;23.05;10.55;;;7.50;99.90;;;;;;4910489;28;20069;-86
2021/10/12 00:57:40;;;;;;;22.20;10.85;;;7.60;99.90;;;;;;4957124;28;20095;-87
2021/10/12 01:00:10;;;;;;;26.38;10.98;;;7.50;99.90;;;;;;4925471;28;20047;-86
2021/10/12 01:02:36;;;;;;;28.50;12.43;;;7.50;99.90;;;;;;4942961;28;20090;-88
2021/10/12 01:05:04;;;;;;;23.98;11.20;;;7.50;99.90;;;;;;4940110;29;20050;-86
2021/10/12 01:07:30;;;;;;;21.85;11.43;;;7.50;99.90;;;;;;4928385;28;20074;-87
2021/10/12 01:09:56;;;;;;;25.00;12.02;;;7.50;99.90;;;;;;4939359;28;20039;-88
2021/10/12 01:12:22;;;;;;;22.98;11.77;;;7.50;99.90;;;;;;4928539;28;20066;-88
2021/10/12 01:14:48;;;;;;;23.60;12.27;;;7.50;99.90;;;;;;4944511;28;20122;-87
2021/10/12 01:17:14;;;;;;;19.42;10.18;;;7.50;99.90;;;;;;4927566;28;20578;-87
2021/10/12 01:19:39;;;;;;;20.65;10.63;;;7.50;99.90;;;;;;4959144;28;20405;-87
2021/10/12 01:22:05;;;;;;;21.02;10.20;;;7.50;99.90;;;;;;4975732;28;20035;-86
2021/10/12 01:24:31;;;;;;;22.52;10.15;;;7.50;99.90;;;;;;4943519;28;20482;-87
2021/10/12 01:26:56;;;;;;;19.90;10.68;;;7.50;99.90;;;;;;4959514;28;20023;-88
2021/10/12 01:29:22;;;;;;;19.17;9.70;;;7.50;99.90;;;;;;4941795;28;20046;-87
2021/10/12 01:31:48;;;;;;;21.95;10.30;;;7.50;99.90;;;;;;4954683;28;20027;-87
2021/10/12 01:34:20;;;;;;;20.60;10.57;;;7.50;99.90;;;;;;4937697;28;20058;-87
2021/10/12 01:36:47;;;;;;;13.90;8.40;;;7.50;99.90;;;;;;4960538;28;20026;-87
2021/10/12 01:39:14;;;;;;;19.52;9.93;;;7.50;99.90;;;;;;4953322;29;20027;-87
2021/10/12 01:41:40;;;;;;;20.27;10.27;;;7.50;99.90;;;;;;4952360;28;20026;-86
2021/10/12 01:44:10;;;;;;;22.58;11.07;;;7.50;99.90;;;;;;4956382;28;20042;-86
2021/10/12 01:46:36;;;;;;;19.73;10.20;;;7.50;99.90;;;;;;4927842;28;20540;-87
2021/10/12 01:49:02;;;;;;;17.17;9.40;;;7.50;99.90;;;;;;4939982;28;20043;-88
2021/10/12 01:51:28;;;;;;;17.27;9.85;;;7.50;99.90;;;;;;4926870;28;20035;-88
2021/10/12 01:54:13;;;;;;;21.73;10.20;;;7.50;99.90;;;;;;4911614;28;20023;-88
2021/10/12 01:56:40;;;;;;;18.35;10.48;;;7.50;99.90;;;;;;4951995;28;20035;-86
2021/10/12 01:59:06;;;;;;;20.67;10.10;;;7.50;99.90;;;;;;4924650;28;20035;-87
2021/10/12 02:01:32;;;;;;;22.17;10.95;;;7.50;99.90;;;;;;4939953;28;20493;-88
2021/10/12 02:03:57;;;;;;;19.38;10.18;;;7.50;99.90;;;;;;4922427;29;20500;-88
2021/10/12 02:06:23;;;;;;;18.38;8.98;;;7.50;99.90;;;;;;4948275;28;20031;-87
2021/10/12 02:08:49;;;;;;;20.52;10.45;;;7.50;99.90;;;;;;4927634;28;20177;-87
2021/10/12 02:11:15;;;;;;;20.30;10.68;;;7.50;99.90;;;;;;4933218;28;20046;-88
2021/10/12 02:13:40;;;;;;;23.02;11.10;;;7.40;99.90;;;;;;4944598;28;20504;-88
2021/10/12 02:16:06;;;;;;;24.20;12.30;;;7.50;99.90;;;;;;4943688;28;20031;-88
2021/10/12 02:18:32;;;;;;;23.58;11.13;;;7.40;99.90;;;;;;4944929;28;20129;-87
2021/10/12 02:20:57;;;;;;;20.15;11.10;;;7.40;99.90;;;;;;4941305;28;20031;-88
2021/10/12 02:23:25;;;;;;;20.65;10.20;;;7.40;99.90;;;;;;4930584;28;20049;-87
2021/10/12 02:25:50;;;;;;;25.77;10.95;;;7.40;99.90;;;;;;4939267;28;20031;-88
2021/10/12 02:28:16;;;;;;;23.80;10.80;;;7.40;99.90;;;;;;4945667;28;20031;-87
2021/10/12 02:30:42;;;;;;;22.95;11.20;;;7.40;99.90;;;;;;4947026;28;20417;-88
2021/10/12 02:33:08;;;;;;;21.20;10.73;;;7.40;99.90;;;;;;4964016;28;20494;-88
2021/10/12 02:35:33;;;;;;;20.10;10.07;;;7.30;99.90;;;;;;4947177;28;20046;-87
2021/10/12 02:37:59;;;;;;;25.40;11.48;;;7.30;99.90;;;;;;4932145;28;20042;-86
2021/10/12 02:40:25;;;;;;;23.33;10.90;;;7.30;99.90;;;;;;4927937;28;20046;-87
2021/10/12 02:42:51;;;;;;;20.73;10.23;;;7.30;99.90;;;;;;4930066;28;20038;-87
2021/10/12 02:45:17;;;;;;;26.92;11.85;;;7.20;99.90;;;;;;4961637;28;20035;-87
2021/10/12 02:47:42;;;;;;;21.50;11.02;;;7.20;99.90;;;;;;4948169;28;20207;-86
2021/10/12 02:50:09;;;;;;;23.90;10.70;;;7.20;99.90;;;;;;4945731;28;20037;-87
2021/10/12 02:52:35;;;;;;;21.23;10.57;;;7.20;99.90;;;;;;4931998;28;20463;-87
2021/10/12 02:55:01;;;;;;;21.33;9.48;;;7.20;99.90;;;;;;4942117;28;20118;-87
2021/10/12 02:57:27;;;;;;;20.15;10.70;;;7.20;99.90;;;;;;4965802;28;20121;-88
2021/10/12 02:59:53;;;;;;;20.13;10.35;;;7.20;99.90;;;;;;4959984;28;20093;-87
2021/10/12 03:02:19;;;;;;;21.52;9.95;;;7.20;99.90;;;;;;4930677;28;20042;-88
2021/10/12 03:04:44;;;;;;;17.48;9.73;;;7.20;99.90;;;;;;4946902;28;20049;-86
2021/10/12 03:07:11;;;;;;;21.73;11.38;;;7.20;99.90;;;;;;4931479;28;20148;-87
2021/10/12 03:09:36;;;;;;;21.55;10.15;;;7.20;99.90;;;;;;4946602;28;20046;-86
2021/10/12 03:12:03;;;;;;;22.15;10.98;;;7.20;99.90;;;;;;4930436;29;20043;-87
2021/10/12 03:14:28;;;;;;;22.02;10.70;;;7.20;99.90;;;;;;4941643;28;20078;-87
2021/10/12 03:16:54;;;;;;;22.35;10.68;;;7.20;99.90;;;;;;4929189;28;20027;-86
2021/10/12 03:19:20;;;;;;;18.83;10.65;;;7.20;99.90;;;;;;4938198;28;20371;-88
2021/10/12 03:21:59;;;;;;;20.80;11.07;;;7.30;99.90;;;;;;4932259;28;20173;-89
2021/10/12 03:24:24;;;;;;;21.42;9.95;;;7.30;99.90;;;;;;4941664;28;20069;-88
2021/10/12 03:26:51;;;;;;;18.98;9.15;;;7.20;99.90;;;;;;4934025;28;20038;-87
2021/10/12 03:29:16;;;;;;;18.73;10.18;;;7.30;99.90;;;;;;4947353;28;20058;-88
2021/10/12 03:31:42;;;;;;;18.90;9.77;;;7.20;99.90;;;;;;4945568;28;20054;-88
2021/10/12 03:34:08;;;;;;;17.70;9.50;;;7.30;99.90;;;;;;4959408;28;20534;-87
2021/10/12 03:36:34;;;;;;;19.23;10.57;;;7.30;99.90;;;;;;4946960;28;20371;-86
2021/10/12 03:39:00;;;;;;;22.02;9.73;;;7.30;99.90;;;;;;4944642;28;20043;-87
2021/10/12 03:41:26;;;;;;;17.85;9.40;;;7.30;99.90;;;;;;4930971;28;20034;-89
2021/10/12 03:43:52;;;;;;;19.73;10.57;;;7.30;99.90;;;;;;4943956;28;20090;-87
2021/10/12 03:46:17;;;;;;;18.98;9.90;;;7.30;99.90;;;;;;4947250;28;20490;-87
2021/10/12 03:48:43;;;;;;;18.55;9.60;;;7.30;99.90;;;;;;4944112;28;20637;-87
2021/10/12 03:51:10;;;;;;;18.92;9.73;;;7.30;99.90;;;;;;4932513;28;20039;-87
2021/10/12 03:53:36;;;;;;;18.33;8.75;;;7.30;99.90;;;;;;4943160;28;20081;-87
2021/10/12 03:56:02;;;;;;;19.00;9.13;;;7.30;99.90;;;;;;4941528;28;20030;-87
2021/10/12 03:58:28;;;;;;;18.13;10.05;;;7.30;99.90;;;;;;4929946;28;20049;-86
2021/10/12 04:00:54;;;;;;;17.75;8.60;;;7.20;99.90;;;;;;4960474;28;20062;-87
2021/10/12 04:03:20;;;;;;;18.45;9.10;;;7.20;99.90;;;;;;4944938;28;20127;-88
2021/10/12 04:05:47;;;;;;;13.27;8.32;;;7.20;99.90;;;;;;4944844;28;20485;-86
2021/10/12 04:08:12;;;;;;;14.93;8.40;;;7.20;99.90;;;;;;4944632;28;20042;-87
2021/10/12 04:10:38;;;;;;;14.45;7.88;;;7.20;99.90;;;;;;4931948;28;20035;-87
2021/10/12 04:13:05;;;;;;;16.30;8.65;;;7.20;99.90;;;;;;4942686;29;20035;-86
2021/10/12 04:15:32;;;;;;;14.82;7.68;;;7.20;99.90;;;;;;4941573;28;20528;-87
2021/10/12 04:17:58;;;;;;;16.92;8.05;;;7.10;99.90;;;;;;4939538;29;20130;-88
2021/10/12 04:20:27;;;;;;;17.80;9.07;;;7.10;99.90;;;;;;4957796;28;20077;-87
2021/10/12 04:22:55;;;;;;;13.27;8.35;;;7.10;99.90;;;;;;4960639;28;20101;-87
2021/10/12 04:25:22;;;;;;;15.48;8.30;;;7.10;99.90;;;;;;4942824;28;20102;-88
2021/10/12 04:27:50;;;;;;;15.88;8.20;;;7.10;99.90;;;;;;4957521;28;20111;-87
2021/10/12 04:30:16;;;;;;;14.32;7.72;;;7.10;99.90;;;;;;4909606;28;20038;-87
2021/10/12 04:32:42;;;;;;;15.88;7.75;;;7.20;99.90;;;;;;4945172;28;20031;-87
2021/10/12 04:35:08;;;;;;;19.95;8.50;;;7.10;99.90;;;;;;4945432;28;20107;-87
2021/10/12 04:37:34;;;;;;;15.15;7.65;;;7.10;99.90;;;;;;4931170;28;20031;-87
2021/10/12 04:39:59;;;;;;;15.73;7.70;;;7.20;99.90;;;;;;4936942;29;20039;-86
2021/10/12 04:42:25;;;;;;;17.13;7.55;;;7.10;99.90;;;;;;4957841;28;20031;-86
2021/10/12 04:44:53;;;;;;;16.58;8.27;;;7.10;99.90;;;;;;4944756;28;20034;-87
2021/10/12 04:47:22;;;;;;;14.43;8.35;;;7.10;99.90;;;;;;4950746;28;20126;-88
2021/10/12 04:49:48;;;;;;;12.13;7.25;;;7.10;99.90;;;;;;4927201;28;20022;-87
2021/10/12 04:52:15;;;;;;;16.45;7.60;;;7.10;99.90;;;;;;4940567;28;20038;-88
2021/10/12 04:54:41;;;;;;;18.58;9.02;;;7.10;99.90;;;;;;4928043;28;20116;-88
2021/10/12 04:57:07;;;;;;;14.85;8.20;;;7.10;99.90;;;;;;4959414;28;20034;-87
2021/10/12 04:59:32;;;;;;;14.95;8.20;;;7.10;99.90;;;;;;4935697;28;20057;-86
2021/10/12 05:01:58;;;;;;;13.38;7.43;;;7.20;99.90;;;;;;4941951;28;20050;-88
2021/10/12 05:04:24;;;;;;;16.73;7.75;;;7.10;99.90;;;;;;4954919;29;20343;-87
2021/10/12 05:06:52;;;;;;;16.20;8.30;;;7.10;99.90;;;;;;4976152;28;20117;-87
2021/10/12 05:09:17;;;;;;;15.75;8.48;;;7.20;99.90;;;;;;4944028;28;20058;-88
2021/10/12 05:11:43;;;;;;;21.08;10.00;;;7.20;99.90;;;;;;4928366;28;20050;-87
2021/10/12 05:14:10;;;;;;;18.35;9.25;;;7.10;99.90;;;;;;4957661;28;20049;-87
2021/10/12 05:16:36;;;;;;;17.63;9.38;;;7.20;99.90;;;;;;4955682;28;20027;-88
2021/10/12 05:19:02;;;;;;;19.10;9.52;;;7.30;99.90;;;;;;4956206;28;20047;-87
2021/10/12 05:21:30;;;;;;;18.42;9.45;;;7.30;99.90;;;;;;4912093;28;20105;-88
2021/10/12 05:23:56;;;;;;;23.27;9.82;;;7.30;99.90;;;;;;4954359;28;20034;-87
2021/10/12 05:26:22;;;;;;;21.27;10.88;;;7.20;99.90;;;;;;4959152;28;20030;-88
2021/10/12 05:28:52;;;;;;;17.90;8.90;;;7.20;99.90;;;;;;4956628;28;20477;-87
2021/10/12 05:31:20;;;;;;;19.58;9.00;;;7.30;99.90;;;;;;4953812;28;20031;-87
2021/10/12 05:33:46;;;;;;;22.52;10.95;;;7.20;99.90;;;;;;4942257;28;20070;-88
2021/10/12 05:36:12;;;;;;;20.52;9.50;;;7.30;99.90;;;;;;4939314;28;20418;-88
2021/10/12 05:38:39;;;;;;;23.38;10.68;;;7.30;99.90;;;;;;4940276;28;20038;-88
2021/10/12 05:41:05;;;;;;;20.80;10.13;;;7.30;99.90;;;;;;4940594;28;20730;-88
2021/10/12 05:43:30;;;;;;;18.27;9.98;;;7.30;99.90;;;;;;4945907;28;20046;-88
2021/10/12 05:45:56;;;;;;;20.30;10.70;;;7.40;99.90;;;;;;4952133;29;20463;-88
2021/10/12 05:48:22;;;;;;;23.60;10.45;;;7.40;99.90;;;;;;4954845;28;20126;-88
2021/10/12 05:50:48;;;;;;;20.48;10.93;;;7.40;99.90;;;;;;4925425;28;20023;-88
2021/10/12 05:53:24;;;;;;;20.98;9.30;;;7.40;99.90;;;;;;4930705;28;20041;-87
2021/10/12 05:58:53;;;;;;;18.88;10.13;;;7.40;99.90;;;;;;4975499;28;20042;-88
2021/10/12 06:01:12;;;;;;;22.88;10.00;;;7.40;99.90;;;;;;4952864;28;20055;-87
2021/10/12 06:03:39;;;;;;;21.50;9.80;;;7.40;99.90;;;;;;4949811;28;20125;-88
2021/10/12 06:06:05;;;;;;;22.00;9.93;;;7.40;99.90;;;;;;4941193;28;20031;-88
2021/10/12 06:08:33;;;;;;;22.00;8.82;;;7.40;99.90;;;;;;4974249;28;20031;-89
2021/10/12 06:11:00;;;;;;;20.23;9.45;;;7.40;99.90;;;;;;4955920;28;20031;-89
2021/10/12 06:13:25;;;;;;;18.95;9.48;;;7.40;99.90;;;;;;4946197;28;20617;-87
2021/10/12 06:15:52;;;;;;;17.65;9.10;;;7.40;99.90;;;;;;4929927;28;20066;-88
2021/10/12 06:18:19;;;;;;;18.77;9.07;;;7.40;99.90;;;;;;4958930;28;20089;-88
2021/10/12 06:20:45;;;;;;;19.50;9.52;;;7.40;99.90;;;;;;4956408;28;20054;-87
2021/10/12 06:23:11;;;;;;;19.33;9.38;;;7.50;99.90;;;;;;4942632;28;20042;-88
2021/10/12 06:25:37;;;;;;;18.35;9.70;;;7.50;99.90;;;;;;4933115;28;20457;-87
2021/10/12 06:28:04;;;;;;;22.27;10.35;;;7.50;99.90;;;;;;4939096;28;20098;-87
2021/10/12 06:30:30;;;;;;;16.30;8.18;;;7.50;99.90;;;;;;4955395;28;20474;-88
2021/10/12 06:32:55;;;;;;;18.42;8.68;;;7.50;99.90;;;;;;4973142;28;20147;-88
2021/10/12 06:35:21;;;;;;;16.65;8.35;;;7.60;99.90;;;;;;4956573;28;20500;-87
2021/10/12 06:37:48;;;;;;;18.80;10.10;;;7.70;99.90;;;;;;4927092;28;20130;-87
2021/10/12 06:40:14;;;;;;;17.23;8.63;;;7.70;99.90;;;;;;4941367;28;20089;-87
2021/10/12 06:42:40;;;;;;;16.38;8.60;;;7.70;99.90;;;;;;4942660;28;20035;-87
2021/10/12 06:45:06;;;;;;;15.80;8.68;;;7.80;99.90;;;;;;4926802;28;20077;-88
2021/10/12 06:47:32;;;;;;;16.35;8.40;;;7.80;99.90;;;;;;4958999;28;20045;-87
2021/10/12 06:49:57;;;;;;;15.60;8.07;;;7.90;99.90;;;;;;4939830;28;20027;-87
2021/10/12 06:52:23;;;;;;;17.85;8.30;;;7.90;99.90;;;;;;4940158;28;20439;-87
2021/10/12 06:54:50;;;;;;;16.55;8.43;;;7.90;99.90;;;;;;4972782;28;20510;-86
2021/10/12 06:57:16;;;;;;;14.80;7.80;;;8.00;99.90;;;;;;4942274;28;20037;-86
2021/10/12 06:59:42;;;;;;;15.52;8.05;;;8.00;99.90;;;;;;4951083;28;20583;-88
2021/10/12 07:02:08;;;;;;;17.73;7.38;;;8.00;99.90;;;;;;4909626;28;20129;-88
2021/10/12 07:04:34;;;;;;;16.58;7.75;;;8.10;99.90;;;;;;4926333;28;20035;-87
2021/10/12 07:07:00;;;;;;;14.90;7.40;;;8.10;99.90;;;;;;4929445;28;20039;-87
2021/10/12 07:09:26;;;;;;;14.20;7.25;;;8.10;99.90;;;;;;4925961;28;20038;-87
2021/10/12 07:11:52;;;;;;;13.65;7.22;;;8.10;99.90;;;;;;4940303;28;20035;-86
2021/10/12 07:14:18;;;;;;;13.98;8.20;;;8.10;99.90;;;;;;4952079;28;20027;-87
2021/10/12 07:16:44;;;;;;;12.00;7.07;;;8.10;99.90;;;;;;4924297;28;20034;-86
2021/10/12 07:19:09;;;;;;;12.98;7.15;;;8.20;99.90;;;;;;4927492;28;20034;-87
2021/10/12 07:21:35;;;;;;;12.85;7.40;;;8.20;99.90;;;;;;4952974;28;20489;-87
2021/10/12 07:24:01;;;;;;;11.55;6.88;;;8.20;99.90;;;;;;4939798;28;20039;-87
2021/10/12 07:26:27;;;;;;;14.52;6.57;;;8.30;99.90;;;;;;4955061;28;20035;-89
2021/10/12 07:28:55;;;;;;;11.60;6.13;;;8.20;99.90;;;;;;4939670;28;20038;-89
2021/10/12 07:31:20;;;;;;;11.27;6.47;;;8.20;99.90;;;;;;4940606;28;20110;-88
2021/10/12 07:33:46;;;;;;;8.77;5.82;;;8.10;99.90;;;;;;4940032;28;20553;-89
2021/10/12 07:36:12;;;;;;;9.60;5.68;;;8.10;99.90;;;;;;4937885;28;20053;-88
2021/10/12 07:38:38;;;;;;;10.57;6.15;;;8.10;99.90;;;;;;4956116;28;20097;-88
2021/10/12 07:41:03;;;;;;;12.90;6.00;;;8.10;99.90;;;;;;4940950;28;20047;-89
2021/10/12 07:43:29;;;;;;;11.40;5.93;;;8.10;99.90;;;;;;4941305;28;20031;-88
2021/10/12 07:45:55;;;;;;;11.82;6.10;;;8.20;99.90;;;;;;4925349;28;20043;-88
2021/10/12 07:48:23;;;;;;;10.95;6.07;;;8.30;99.90;;;;;;4940192;28;20034;-88
2021/10/12 07:50:49;;;;;;;9.55;5.05;;;8.30;99.90;;;;;;4953365;28;20031;-87
2021/10/12 07:53:16;;;;;;;9.77;5.53;;;8.40;99.90;;;;;;4921130;29;20031;-88
2021/10/12 07:55:46;;;;;;;9.57;4.80;;;8.50;99.90;;;;;;4940161;28;20019;-88
2021/10/12 07:58:12;;;;;;;10.02;5.40;;;8.50;99.90;;;;;;4934107;28;20042;-87
2021/10/12 08:00:37;;;;;;;12.60;5.57;;;8.60;99.90;;;;;;4933279;28;20035;-88
2021/10/12 08:03:04;;;;;;;10.05;4.95;;;8.70;99.90;;;;;;4924293;28;20493;-88
2021/10/12 08:05:31;;;;;;;8.15;5.55;;;8.70;99.90;;;;;;4948646;28;20117;-87
2021/10/12 08:07:57;;;;;;;10.27;5.13;;;8.70;99.90;;;;;;4942029;28;20130;-87
2021/10/12 08:10:24;;;;;;;9.15;5.18;;;8.80;99.90;;;;;;4956218;28;20054;-88
2021/10/12 08:12:57;;;;;;;8.77;5.30;;;8.80;99.90;;;;;;4939751;28;20042;-87
2021/10/12 08:15:23;;;;;;;7.75;4.75;;;8.70;99.90;;;;;;4942078;28;20031;-87
2021/10/12 08:17:49;;;;;;;7.45;4.90;;;8.80;99.90;;;;;;4951366;28;20065;-88
2021/10/12 08:20:15;;;;;;;7.22;4.63;;;8.80;99.90;;;;;;4936418;28;20030;-87
2021/10/12 08:22:42;;;;;;;7.82;5.07;;;8.80;99.90;;;;;;4933893;28;20035;-87
2021/10/12 08:25:08;;;;;;;10.82;5.40;;;8.90;99.90;;;;;;4938241;28;20042;-87
2021/10/12 08:27:38;;;;;;;8.85;5.35;;;8.90;99.90;;;;;;4936449;28;20126;-87
2021/10/12 08:30:06;;;;;;;8.27;5.38;;;8.90;99.90;;;;;;4939617;28;20058;-87
2021/10/12 08:32:34;;;;;;;10.90;5.53;;;8.90;99.90;;;;;;4921705;28;20035;-87
2021/10/12 08:34:59;;;;;;;7.93;4.60;;;8.90;99.90;;;;;;4967332;28;20482;-88
2021/10/12 08:37:25;;;;;;;7.13;4.60;;;8.90;99.90;;;;;;4905176;28;20062;-87
2021/10/12 08:39:51;;;;;;;9.57;4.97;;;8.90;99.90;;;;;;4939064;28;20054;-87
2021/10/12 08:42:33;;;;;;;7.75;4.43;;;8.90;99.90;;;;;;4953126;28;20035;-87
2021/10/12 08:45:02;;;;;;;6.40;4.03;;;8.90;99.90;;;;;;4938245;28;20030;-87
2021/10/12 08:47:29;;;;;;;8.88;4.53;;;8.90;99.90;;;;;;4956489;28;20076;-87
2021/10/12 08:49:58;;;;;;;7.32;4.50;;;8.80;99.90;;;;;;4929950;28;20050;-87
2021/10/12 08:52:24;;;;;;;7.22;4.15;;;8.80;99.90;;;;;;4946129;28;20045;-87
2021/10/12 08:54:51;;;;;;;8.55;3.88;;;8.80;99.90;;;;;;4963001;28;20047;-86
2021/10/12 08:57:32;;;;;;;9.50;4.35;;;8.80;99.90;;;;;;4940892;28;20054;-87
2021/10/12 09:00:02;;;;;;;7.95;4.88;;;8.80;99.90;;;;;;4936683;28;20047;-87
2021/10/12 09:02:29;;;;;;;9.50;5.05;;;8.80;99.90;;;;;;4943476;28;20054;-86
2021/10/12 09:04:55;;;;;;;6.68;4.85;;;8.90;99.90;;;;;;4938242;28;20102;-85
2021/10/12 09:07:26;;;;;;;5.97;4.00;;;8.90;99.90;;;;;;4943490;28;20134;-86
2021/10/12 09:09:55;;;;;;;5.45;3.53;;;8.90;99.90;;;;;;4955281;28;20033;-88
2021/10/12 09:12:44;;;;;;;7.20;4.35;;;9.00;99.90;;;;;;4942263;28;20039;-86
2021/10/12 09:15:11;;;;;;;6.15;4.40;;;9.00;99.90;;;;;;4956242;28;20049;-86
2021/10/12 09:17:39;;;;;;;8.85;4.63;;;9.10;99.90;;;;;;4956739;28;20069;-86
2021/10/12 09:20:11;;;;;;;9.55;5.15;;;9.10;99.90;;;;;;4957574;28;20097;-87
2021/10/12 09:22:39;;;;;;;8.40;4.88;;;9.10;99.90;;;;;;4937760;28;20022;-87
2021/10/12 09:25:10;;;;;;;5.68;4.15;;;9.20;99.90;;;;;;4973387;28;20039;-86
2021/10/12 09:27:55;;;;;;;7.13;4.57;;;9.30;99.90;;;;;;4970083;28;20402;-86
2021/10/12 09:30:31;;;;;;;7.70;4.93;;;9.40;99.90;;;;;;4944299;28;20047;-86
2021/10/12 09:33:06;;;;;;;10.30;5.82;;;9.40;99.90;;;;;;4957187;28;20031;-87
2021/10/12 09:35:33;;;;;;;9.30;4.88;;;9.40;99.90;;;;;;4960429;28;20031;-86
2021/10/12 09:38:10;;;;;;;7.15;4.28;;;9.50;99.90;;;;;;4944162;28;20075;-88
2021/10/12 09:40:40;;;;;;;6.13;3.80;;;9.50;99.90;;;;;;4944887;28;20101;-87
2021/10/12 09:43:06;;;;;;;7.28;4.55;;;9.60;99.90;;;;;;4946060;28;20030;-87
2021/10/12 09:45:40;;;;;;;6.25;4.65;;;9.70;99.90;;;;;;4963780;28;20043;-87
2021/10/12 09:48:26;;;;;;;8.77;4.82;;;9.90;99.90;;;;;;4950960;29;20147;-87
2021/10/12 09:51:14;;;;;;;6.20;3.95;;;9.90;99.90;;;;;;4959112;28;20036;-87
2021/10/12 09:53:44;;;;;;;8.27;4.30;;;9.90;99.90;;;;;;4949658;28;20046;-87
2021/10/12 09:56:11;;;;;;;6.25;3.90;;;10.00;99.90;;;;;;4962888;28;20089;-88
2021/10/12 09:58:38;;;;;;;4.80;3.50;;;10.00;99.90;;;;;;4927408;28;20059;-85
2021/10/12 10:01:07;;;;;;;6.38;4.07;;;10.00;99.90;;;;;;4955982;28;20038;-86
2021/10/12 10:03:33;;;;;;;5.88;3.45;;;10.00;99.90;;;;;;4959395;28;20080;-86
2021/10/12 10:06:14;;;;;;;5.05;3.25;;;9.90;99.90;;;;;;4941731;28;20039;-86
2021/10/12 10:08:50;;;;;;;4.53;3.08;;;9.90;99.90;;;;;;4959796;28;20041;-87
2021/10/12 10:11:16;;;;;;;5.03;2.95;;;10.00;99.90;;;;;;4943363;28;20030;-86
2021/10/12 10:13:41;;;;;;;4.90;3.63;;;10.00;99.90;;;;;;4958893;28;20098;-87
2021/10/12 10:16:13;;;;;;;5.53;2.83;;;10.10;99.90;;;;;;4971685;28;20099;-86
2021/10/12 10:18:40;;;;;;;7.63;3.60;;;10.10;99.90;;;;;;4957885;28;20122;-87
2021/10/12 10:21:06;;;;;;;4.65;3.08;;;10.00;99.90;;;;;;4957451;28;20535;-86
2021/10/12 10:23:57;;;;;;;4.75;3.15;;;10.00;99.90;;;;;;4943862;28;20492;-86
2021/10/12 10:26:31;;;;;;;4.00;2.75;;;10.10;99.90;;;;;;4970548;28;20127;-86
2021/10/12 10:29:24;;;;;;;3.97;3.00;;;10.10;99.90;;;;;;4943873;28;20054;-85
2021/10/12 10:31:58;;;;;;;4.65;2.90;;;10.10;99.90;;;;;;4954800;28;20015;-86
2021/10/12 10:34:40;;;;;;;3.97;2.90;;;10.10;99.90;;;;;;4957122;28;20038;-86
2021/10/12 10:37:15;;;;;;;2.90;2.40;;;10.20;99.90;;;;;;4958372;28;20026;-86
2021/10/12 10:40:00;;;;;;;3.92;2.03;;;10.20;99.90;;;;;;4956277;28;20110;-86
2021/10/12 10:42:26;;;;;;;5.50;2.53;;;10.40;99.90;;;;;;4969437;28;20081;-85
2021/10/12 10:44:56;;;;;;;3.05;2.13;;;10.50;99.90;;;;;;4942686;28;20193;-85
2021/10/12 10:47:40;;;;;;;2.33;1.83;;;10.60;99.90;;;;;;4968476;28;20035;-85
2021/10/12 10:50:25;;;;;;;3.33;2.08;;;10.50;99.90;;;;;;4970062;28;20034;-86
2021/10/12 10:53:04;;;;;;;2.13;1.92;;;10.50;99.90;;;;;;4937084;28;20419;-86
2021/10/12 10:55:35;;;;;;;2.25;2.00;;;10.40;99.90;;;;;;4967239;28;20023;-87
2021/10/12 10:58:04;;;;;;;3.42;1.70;;;10.20;99.90;;;;;;4937486;28;20039;-87
2021/10/12 11:00:42;;;;;;;2.10;1.40;;;10.10;99.90;;;;;;4951095;28;20027;-85
2021/10/12 11:03:09;;;;;;;1.65;1.40;;;10.00;99.90;;;;;;4933105;28;20035;-85
2021/10/12 11:05:42;;;;;;;2.22;1.50;;;9.90;99.90;;;;;;4935974;28;20062;-85
2021/10/12 11:08:14;;;;;;;1.77;1.35;;;9.90;99.90;;;;;;4940615;28;20129;-85
2021/10/12 11:10:42;;;;;;;1.67;1.42;;;9.90;99.90;;;;;;4936672;28;20039;-88
2021/10/12 11:13:08;;;;;;;2.47;1.83;;;9.90;99.90;;;;;;4940476;28;20081;-86
2021/10/12 11:15:47;;;;;;;3.00;1.70;;;9.90;99.90;;;;;;4920180;28;20489;-86
2021/10/12 11:18:13;;;;;;;5.15;2.15;;;10.00;99.90;;;;;;4953966;28;20038;-85
2021/10/12 11:20:59;;;;;;;2.08;1.85;;;10.10;99.90;;;;;;4967077;28;20027;-86
2021/10/12 11:23:32;;;;;;;2.78;1.92;;;10.20;99.90;;;;;;4964101;28;20035;-86
2021/10/12 11:26:12;;;;;;;3.30;2.33;;;10.30;99.90;;;;;;4952857;29;20537;-86
2021/10/12 11:28:42;;;;;;;2.53;2.25;;;10.40;99.90;;;;;;4969375;28;20033;-87
2021/10/12 11:31:14;;;;;;;2.10;1.80;;;10.60;99.90;;;;;;4953495;28;20039;-86
2021/10/12 11:34:02;;;;;;;4.45;2.28;;;10.70;99.90;;;;;;4950123;28;20134;-84
2021/10/12 11:36:30;;;;;;;3.33;2.33;;;10.70;99.90;;;;;;4926448;28;20054;-87
2021/10/12 11:39:04;;;;;;;2.15;1.95;;;10.80;99.90;;;;;;4922115;28;20098;-86
2021/10/12 11:41:32;;;;;;;3.65;2.10;;;10.80;99.90;;;;;;4959327;28;20132;-85
2021/10/12 11:44:01;;;;;;;2.53;2.05;;;10.90;99.90;;;;;;4939747;28;20038;-85
2021/10/12 11:46:36;;;;;;;3.13;1.85;;;10.80;99.90;;;;;;4935350;28;20033;-86
2021/10/12 11:49:13;;;;;;;3.80;2.20;;;10.80;99.90;;;;;;4920634;28;20047;-86
2021/10/12 11:51:40;;;;;;;2.80;1.90;;;10.80;99.90;;;;;;4939073;28;20035;-87
2021/10/12 11:54:07;;;;;;;2.55;2.15;;;10.70;99.90;;;;;;4956592;28;20030;-85
2021/10/12 11:56:35;;;;;;;4.10;2.00;;;10.70;99.90;;;;;;4939361;28;20035;-84
2021/10/12 11:59:04;;;;;;;2.50;2.03;;;10.60;99.90;;;;;;4936541;28;20114;-87
2021/10/12 12:01:36;;;;;;;3.63;2.97;;;10.60;99.90;;;;;;4970191;28;20133;-87
2021/10/12 12:04:04;;;;;;;2.95;1.88;;;10.40;99.90;;;;;;4948711;28;20094;-85
2021/10/12 12:06:32;;;;;;;3.53;2.22;;;10.40;99.90;;;;;;4943210;28;20062;-86
2021/10/12 12:09:02;;;;;;;2.22;1.98;;;10.50;99.90;;;;;;4940635;28;20039;-85
2021/10/12 12:11:29;;;;;;;2.92;1.88;;;10.50;99.90;;;;;;4954844;28;20031;-84
2021/10/12 12:13:57;;;;;;;5.22;2.95;;;10.50;99.90;;;;;;4929857;28;20312;-85
2021/10/12 12:16:24;;;;;;;3.70;2.95;;;10.50;99.90;;;;;;4941866;28;20067;-86
2021/10/12 12:18:50;;;;;;;6.53;2.60;;;10.40;99.90;;;;;;4940067;28;20026;-85
2021/10/12 12:21:33;;;;;;;3.47;2.30;;;10.40;99.90;;;;;;4950503;28;20050;-87
2021/10/12 12:24:02;;;;;;;3.33;2.58;;;10.30;99.90;;;;;;4938528;28;20141;-86
2021/10/12 12:26:32;;;;;;;3.58;2.50;;;10.20;99.90;;;;;;4940541;28;20054;-85
2021/10/12 12:29:19;;;;;;;4.32;2.67;;;10.20;99.90;;;;;;4934696;28;20050;-88
2021/10/12 12:31:50;;;;;;;2.83;2.50;;;10.10;99.90;;;;;;4937006;28;20027;-83
2021/10/12 12:34:34;;;;;;;3.40;2.80;;;10.00;99.90;;;;;;4922107;28;20035;-84
2021/10/12 12:37:07;;;;;;;3.25;2.53;;;10.00;99.90;;;;;;4933597;28;20026;-84
2021/10/12 12:39:41;;;;;;;3.17;2.40;;;9.90;99.90;;;;;;4955827;28;20046;-85
2021/10/12 12:42:08;;;;;;;4.57;2.60;;;9.90;99.90;;;;;;4935985;28;20043;-87
2021/10/12 12:44:35;;;;;;;7.82;2.47;;;9.80;99.90;;;;;;4937595;28;20529;-88
2021/10/12 12:47:05;;;;;;;8.45;2.60;;;9.80;99.90;;;;;;4950437;28;20030;-86
2021/10/12 12:49:31;;;;;;;3.65;2.85;;;9.80;99.90;;;;;;4921471;28;20026;-87
2021/10/12 12:51:57;;;;;;;3.97;2.33;;;9.70;99.90;;;;;;4923992;28;20498;-87
2021/10/12 12:54:49;;;;;;;3.40;2.80;;;9.70;99.90;;;;;;4952419;28;20034;-87